Terminal Aerodrome Forecast
Issued by NWS

Home | Current Version | Previous Version | Text Only | Print | Product List | Glossary On
Versions: 1 2 3 4 5 6 7 8 9 10 11 12 13 14 15 16 17 18 19 20 21 22 23 24 25 26 27 28 29 30 31
000
FTUS43 KIND 020804 AAA
TAFLAF
TAF AMD
KLAF 020804Z 0208/0306 29007KT 1SM BR OVC004
      TEMPO 0210/0213 1/2SM FG VV001
     FM021500 03007KT P6SM VCSH OVC012
     FM022100 03008KT P6SM VCSH OVC035
     FM030300 36009KT 4SM BR VCSH OVC025=

USA.gov is the U.S. government's official web portal to all federal, state and local government web resources and services.